sensor_id;sensor_type;location;lat;lon;timestamp;temperature;humidity
39103;DHT22;24847;48.218;16.414;2023-06-10T00:03:48;17.80;99.90
39103;DHT22;24847;48.218;16.414;2023-06-10T00:08:51;17.90;99.90
39103;DHT22;24847;48.218;16.414;2023-06-10T00:13:55;18.00;99.90
39103;DHT22;24847;48.218;16.414;2023-06-10T00:18:59;17.70;99.90
39103;DHT22;24847;48.218;16.414;2023-06-10T00:24:02;17.60;99.90
39103;DHT22;24847;48.218;16.414;2023-06-10T00:29:07;17.70;99.90
39103;DHT22;24847;48.218;16.414;2023-06-10T00:34:10;17.90;99.90
39103;DHT22;24847;48.218;16.414;2023-06-10T00:39:12;17.80;99.90
39103;DHT22;24847;48.218;16.414;2023-06-10T00:44:15;17.80;99.90
39103;DHT22;24847;48.218;16.414;2023-06-10T00:49:18;17.50;99.90
39103;DHT22;24847;48.218;16.414;2023-06-10T00:54:21;17.30;99.90
39103;DHT22;24847;48.218;16.414;2023-06-10T00:59:25;17.10;99.90
39103;DHT22;24847;48.218;16.414;2023-06-10T01:04:27;17.20;99.90
39103;DHT22;24847;48.218;16.414;2023-06-10T01:09:33;17.10;99.90
39103;DHT22;24847;48.218;16.414;2023-06-10T01:14:41;17.20;99.90
39103;DHT22;24847;48.218;16.414;2023-06-10T01:19:53;17.10;99.90
39103;DHT22;24847;48.218;16.414;2023-06-10T01:24:58;17.20;99.90
39103;DHT22;24847;48.218;16.414;2023-06-10T01:30:10;17.10;99.90
39103;DHT22;24847;48.218;16.414;2023-06-10T01:35:15;17.40;99.90
39103;DHT22;24847;48.218;16.414;2023-06-10T01:40:20;17.20;99.90
39103;DHT22;24847;48.218;16.414;2023-06-10T01:45:23;17.30;99.90
39103;DHT22;24847;48.218;16.414;2023-06-10T01:50:25;17.40;99.90
39103;DHT22;24847;48.218;16.414;2023-06-10T01:55:29;17.10;99.90
39103;DHT22;24847;48.218;16.414;2023-06-10T02:00:32;17.00;99.90
39103;DHT22;24847;48.218;16.414;2023-06-10T02:05:34;16.90;99.90
39103;DHT22;24847;48.218;16.414;2023-06-10T02:10:38;16.80;99.90
39103;DHT22;24847;48.218;16.414;2023-06-10T02:15:41;16.90;99.90
39103;DHT22;24847;48.218;16.414;2023-06-10T02:20:43;16.90;99.90
39103;DHT22;24847;48.218;16.414;2023-06-10T02:25:47;16.90;99.90
39103;DHT22;24847;48.218;16.414;2023-06-10T02:30:50;16.90;99.90
39103;DHT22;24847;48.218;16.414;2023-06-10T02:35:53;16.90;99.90
39103;DHT22;24847;48.218;16.414;2023-06-10T02:40:56;16.80;99.90
39103;DHT22;24847;48.218;16.414;2023-06-10T02:45:58;16.70;99.90
39103;DHT22;24847;48.218;16.414;2023-06-10T02:51:01;16.80;99.90
39103;DHT22;24847;48.218;16.414;2023-06-10T02:56:04;16.80;99.90
39103;DHT22;24847;48.218;16.414;2023-06-10T03:01:07;16.80;99.90
39103;DHT22;24847;48.218;16.414;2023-06-10T03:06:11;16.80;99.90
39103;DHT22;24847;48.218;16.414;2023-06-10T03:11:14;16.80;99.90
39103;DHT22;24847;48.218;16.414;2023-06-10T03:16:17;16.60;99.90
39103;DHT22;24847;48.218;16.414;2023-06-10T03:21:19;16.80;99.90
39103;DHT22;24847;48.218;16.414;2023-06-10T03:26:23;16.60;99.90
39103;DHT22;24847;48.218;16.414;2023-06-10T03:31:25;16.60;99.90
39103;DHT22;24847;48.218;16.414;2023-06-10T03:36:27;16.80;99.90
39103;DHT22;24847;48.218;16.414;2023-06-10T03:41:32;16.70;99.90
39103;DHT22;24847;48.218;16.414;2023-06-10T03:46:34;16.80;99.90
39103;DHT22;24847;48.218;16.414;2023-06-10T03:51:36;17.00;99.90
39103;DHT22;24847;48.218;16.414;2023-06-10T03:56:40;17.00;99.90
39103;DHT22;24847;48.218;16.414;2023-06-10T04:01:43;17.00;99.90
39103;DHT22;24847;48.218;16.414;2023-06-10T04:06:47;17.00;99.90
39103;DHT22;24847;48.218;16.414;2023-06-10T04:11:51;16.90;99.90
39103;DHT22;24847;48.218;16.414;2023-06-10T04:16:53;17.00;99.90
39103;DHT22;24847;48.218;16.414;2023-06-10T04:21:56;17.20;99.90
39103;DHT22;24847;48.218;16.414;2023-06-10T04:26:59;17.30;99.90
39103;DHT22;24847;48.218;16.414;2023-06-10T04:32:02;17.40;99.90
39103;DHT22;24847;48.218;16.414;2023-06-10T04:37:06;17.70;99.90
39103;DHT22;24847;48.218;16.414;2023-06-10T04:42:10;17.70;99.90
39103;DHT22;24847;48.218;16.414;2023-06-10T04:47:12;17.60;99.90
39103;DHT22;24847;48.218;16.414;2023-06-10T04:52:14;17.60;99.90
39103;DHT22;24847;48.218;16.414;2023-06-10T04:57:18;17.60;99.90
39103;DHT22;24847;48.218;16.414;2023-06-10T05:02:20;17.60;99.90
39103;DHT22;24847;48.218;16.414;2023-06-10T05:07:23;17.80;99.90
39103;DHT22;24847;48.218;16.414;2023-06-10T05:12:26;17.90;99.90
39103;DHT22;24847;48.218;16.414;2023-06-10T05:17:28;17.50;99.90
39103;DHT22;24847;48.218;16.414;2023-06-10T05:22:31;17.80;99.90
39103;DHT22;24847;48.218;16.414;2023-06-10T05:27:34;17.80;99.90
39103;DHT22;24847;48.218;16.414;2023-06-10T05:32:37;17.70;99.90
39103;DHT22;24847;48.218;16.414;2023-06-10T05:37:39;17.60;99.90
39103;DHT22;24847;48.218;16.414;2023-06-10T05:42:43;17.80;99.90
39103;DHT22;24847;48.218;16.414;2023-06-10T05:47:45;17.80;99.90
39103;DHT22;24847;48.218;16.414;2023-06-10T05:52:47;17.60;99.90
39103;DHT22;24847;48.218;16.414;2023-06-10T05:58:00;17.70;99.90
39103;DHT22;24847;48.218;16.414;2023-06-10T06:03:02;17.80;99.90
39103;DHT22;24847;48.218;16.414;2023-06-10T06:08:05;17.70;99.90
39103;DHT22;24847;48.218;16.414;2023-06-10T06:13:09;17.80;99.90
39103;DHT22;24847;48.218;16.414;2023-06-10T06:18:11;17.60;99.90
39103;DHT22;24847;48.218;16.414;2023-06-10T06:23:13;17.60;99.90
39103;DHT22;24847;48.218;16.414;2023-06-10T06:28:19;17.70;99.90
39103;DHT22;24847;48.218;16.414;2023-06-10T06:33:23;17.60;99.90
39103;DHT22;24847;48.218;16.414;2023-06-10T06:38:27;17.60;99.90
39103;DHT22;24847;48.218;16.414;2023-06-10T06:43:31;17.70;99.90
39103;DHT22;24847;48.218;16.414;2023-06-10T06:48:33;17.80;99.90
39103;DHT22;24847;48.218;16.414;2023-06-10T06:53:35;17.90;99.90
39103;DHT22;24847;48.218;16.414;2023-06-10T06:58:39;17.60;99.90
39103;DHT22;24847;48.218;16.414;2023-06-10T07:03:41;17.80;99.90
39103;DHT22;24847;48.218;16.414;2023-06-10T07:08:44;17.70;99.90
39103;DHT22;24847;48.218;16.414;2023-06-10T07:13:48;17.70;99.90
39103;DHT22;24847;48.218;16.414;2023-06-10T07:18:50;17.90;99.90
39103;DHT22;24847;48.218;16.414;2023-06-10T07:23:54;17.80;99.90
39103;DHT22;24847;48.218;16.414;2023-06-10T07:28:58;17.90;99.90
39103;DHT22;24847;48.218;16.414;2023-06-10T07:34:00;18.00;99.90
39103;DHT22;24847;48.218;16.414;2023-06-10T07:39:02;18.00;99.90
39103;DHT22;24847;48.218;16.414;2023-06-10T07:44:06;18.00;99.90
39103;DHT22;24847;48.218;16.414;2023-06-10T07:49:08;18.00;99.90
39103;DHT22;24847;48.218;16.414;2023-06-10T07:54:10;18.20;99.90
39103;DHT22;24847;48.218;16.414;2023-06-10T07:59:16;18.00;99.90
39103;DHT22;24847;48.218;16.414;2023-06-10T08:04:19;18.10;99.90
39103;DHT22;24847;48.218;16.414;2023-06-10T08:09:21;18.00;99.90
39103;DHT22;24847;48.218;16.414;2023-06-10T08:14:25;18.00;99.90
39103;DHT22;24847;48.218;16.414;2023-06-10T08:19:29;18.20;99.90
39103;DHT22;24847;48.218;16.414;2023-06-10T08:24:33;18.00;99.90
39103;DHT22;24847;48.218;16.414;2023-06-10T08:29:39;18.10;99.90
39103;DHT22;24847;48.218;16.414;2023-06-10T08:34:42;18.20;99.90
39103;DHT22;24847;48.218;16.414;2023-06-10T08:39:45;18.30;99.90
39103;DHT22;24847;48.218;16.414;2023-06-10T08:44:52;18.40;99.90
39103;DHT22;24847;48.218;16.414;2023-06-10T08:49:56;18.60;99.90
39103;DHT22;24847;48.218;16.414;2023-06-10T08:55:11;18.50;99.90
39103;DHT22;24847;48.218;16.414;2023-06-10T09:00:17;18.50;99.90
39103;DHT22;24847;48.218;16.414;2023-06-10T09:05:20;18.60;99.90
39103;DHT22;24847;48.218;16.414;2023-06-10T09:10:23;18.60;99.90
39103;DHT22;24847;48.218;16.414;2023-06-10T09:15:27;18.70;99.90
39103;DHT22;24847;48.218;16.414;2023-06-10T09:20:29;18.60;99.90
39103;DHT22;24847;48.218;16.414;2023-06-10T09:25:35;19.00;99.90
39103;DHT22;24847;48.218;16.414;2023-06-10T09:30:40;19.40;99.90
39103;DHT22;24847;48.218;16.414;2023-06-10T09:35:46;20.00;99.90
39103;DHT22;24847;48.218;16.414;2023-06-10T09:40:50;20.30;99.90
39103;DHT22;24847;48.218;16.414;2023-06-10T09:45:56;20.40;99.90
39103;DHT22;24847;48.218;16.414;2023-06-10T09:50:58;20.00;99.90
39103;DHT22;24847;48.218;16.414;2023-06-10T09:56:01;20.40;99.90
39103;DHT22;24847;48.218;16.414;2023-06-10T10:01:09;20.20;99.90
39103;DHT22;24847;48.218;16.414;2023-06-10T10:06:12;19.90;99.90
39103;DHT22;24847;48.218;16.414;2023-06-10T10:11:17;20.30;99.90
39103;DHT22;24847;48.218;16.414;2023-06-10T10:16:30;20.10;99.90
39103;DHT22;24847;48.218;16.414;2023-06-10T10:21:43;20.30;99.90
39103;DHT22;24847;48.218;16.414;2023-06-10T10:26:50;20.80;99.90
39103;DHT22;24847;48.218;16.414;2023-06-10T10:31:56;21.20;99.90
39103;DHT22;24847;48.218;16.414;2023-06-10T10:37:01;21.40;99.90
39103;DHT22;24847;48.218;16.414;2023-06-10T10:42:05;21.80;99.90
39103;DHT22;24847;48.218;16.414;2023-06-10T10:47:16;22.10;99.90
39103;DHT22;24847;48.218;16.414;2023-06-10T10:52:22;22.30;99.90
39103;DHT22;24847;48.218;16.414;2023-06-10T10:57:29;22.20;99.90
39103;DHT22;24847;48.218;16.414;2023-06-10T11:02:40;22.50;99.90
39103;DHT22;24847;48.218;16.414;2023-06-10T11:07:53;22.60;99.90
39103;DHT22;24847;48.218;16.414;2023-06-10T11:12:59;21.60;99.90
39103;DHT22;24847;48.218;16.414;2023-06-10T11:18:12;21.80;99.90
39103;DHT22;24847;48.218;16.414;2023-06-10T11:23:25;22.10;99.90
39103;DHT22;24847;48.218;16.414;2023-06-10T11:28:31;21.60;99.90
39103;DHT22;24847;48.218;16.414;2023-06-10T11:33:38;21.20;99.90
39103;DHT22;24847;48.218;16.414;2023-06-10T11:38:40;20.90;99.90
39103;DHT22;24847;48.218;16.414;2023-06-10T11:43:43;21.30;99.90
39103;DHT22;24847;48.218;16.414;2023-06-10T11:48:51;21.50;99.90
39103;DHT22;24847;48.218;16.414;2023-06-10T11:53:54;21.50;99.90
39103;DHT22;24847;48.218;16.414;2023-06-10T11:58:58;21.40;99.90
39103;DHT22;24847;48.218;16.414;2023-06-10T12:04:07;21.40;99.90
39103;DHT22;24847;48.218;16.414;2023-06-10T12:09:15;21.30;99.90
39103;DHT22;24847;48.218;16.414;2023-06-10T12:14:50;21.30;99.90
39103;DHT22;24847;48.218;16.414;2023-06-10T12:19:56;21.20;99.90
39103;DHT22;24847;48.218;16.414;2023-06-10T12:25:01;21.40;99.90
39103;DHT22;24847;48.218;16.414;2023-06-10T12:30:05;21.10;99.90
39103;DHT22;24847;48.218;16.414;2023-06-10T12:35:10;20.90;99.90
39103;DHT22;24847;48.218;16.414;2023-06-10T12:40:14;20.90;99.90
39103;DHT22;24847;48.218;16.414;2023-06-10T12:45:26;20.70;99.90
39103;DHT22;24847;48.218;16.414;2023-06-10T12:50:30;20.30;99.90
39103;DHT22;24847;48.218;16.414;2023-06-10T12:55:33;19.80;99.90
39103;DHT22;24847;48.218;16.414;2023-06-10T13:00:36;19.90;99.90
39103;DHT22;24847;48.218;16.414;2023-06-10T13:05:40;19.80;99.90
39103;DHT22;24847;48.218;16.414;2023-06-10T13:10:44;19.90;99.90
39103;DHT22;24847;48.218;16.414;2023-06-10T13:15:46;19.90;99.90
39103;DHT22;24847;48.218;16.414;2023-06-10T13:20:50;20.20;99.90
39103;DHT22;24847;48.218;16.414;2023-06-10T13:25:53;20.20;99.90
39103;DHT22;24847;48.218;16.414;2023-06-10T13:30:56;20.10;99.90
39103;DHT22;24847;48.218;16.414;2023-06-10T13:36:00;20.10;99.90
39103;DHT22;24847;48.218;16.414;2023-06-10T13:41:02;20.20;99.90
39103;DHT22;24847;48.218;16.414;2023-06-10T13:46:04;20.40;99.90
39103;DHT22;24847;48.218;16.414;2023-06-10T13:51:07;20.40;99.90
39103;DHT22;24847;48.218;16.414;2023-06-10T13:56:12;20.30;99.90
39103;DHT22;24847;48.218;16.414;2023-06-10T14:01:15;20.10;99.90
39103;DHT22;24847;48.218;16.414;2023-06-10T14:06:18;20.20;99.90
39103;DHT22;24847;48.218;16.414;2023-06-10T14:11:20;20.30;99.90
39103;DHT22;24847;48.218;16.414;2023-06-10T14:16:23;20.40;99.90
39103;DHT22;24847;48.218;16.414;2023-06-10T14:21:27;20.40;99.90
39103;DHT22;24847;48.218;16.414;2023-06-10T14:26:29;20.40;99.90
39103;DHT22;24847;48.218;16.414;2023-06-10T14:31:33;20.50;99.90
39103;DHT22;24847;48.218;16.414;2023-06-10T14:36:36;20.60;99.90
39103;DHT22;24847;48.218;16.414;2023-06-10T14:41:39;20.70;99.90
39103;DHT22;24847;48.218;16.414;2023-06-10T14:46:44;20.70;99.90
39103;DHT22;24847;48.218;16.414;2023-06-10T14:51:47;20.90;99.90
39103;DHT22;24847;48.218;16.414;2023-06-10T14:56:50;21.00;99.90
39103;DHT22;24847;48.218;16.414;2023-06-10T15:01:53;21.00;99.90
39103;DHT22;24847;48.218;16.414;2023-06-10T15:06:56;20.80;99.90
39103;DHT22;24847;48.218;16.414;2023-06-10T15:11:58;20.90;99.90
39103;DHT22;24847;48.218;16.414;2023-06-10T15:17:01;21.00;99.90
39103;DHT22;24847;48.218;16.414;2023-06-10T15:22:05;21.00;99.90
39103;DHT22;24847;48.218;16.414;2023-06-10T15:27:08;20.90;99.90
39103;DHT22;24847;48.218;16.414;2023-06-10T15:32:10;20.30;99.90
39103;DHT22;24847;48.218;16.414;2023-06-10T15:37:16;19.10;99.90
39103;DHT22;24847;48.218;16.414;2023-06-10T15:42:19;18.20;99.90
39103;DHT22;24847;48.218;16.414;2023-06-10T15:47:21;18.20;99.90
39103;DHT22;24847;48.218;16.414;2023-06-10T15:52:25;18.60;99.90
39103;DHT22;24847;48.218;16.414;2023-06-10T15:57:27;18.60;99.90
39103;DHT22;24847;48.218;16.414;2023-06-10T16:02:29;18.70;99.90
39103;DHT22;24847;48.218;16.414;2023-06-10T16:07:33;18.70;99.90
39103;DHT22;24847;48.218;16.414;2023-06-10T16:12:35;18.50;99.90
39103;DHT22;24847;48.218;16.414;2023-06-10T16:17:37;18.70;99.90
39103;DHT22;24847;48.218;16.414;2023-06-10T16:22:41;18.70;99.90
39103;DHT22;24847;48.218;16.414;2023-06-10T16:27:43;18.70;99.90
39103;DHT22;24847;48.218;16.414;2023-06-10T16:32:45;18.70;99.90
39103;DHT22;24847;48.218;16.414;2023-06-10T16:37:49;18.70;99.90
39103;DHT22;24847;48.218;16.414;2023-06-10T16:42:51;18.70;99.90
39103;DHT22;24847;48.218;16.414;2023-06-10T16:47:53;18.30;99.90
39103;DHT22;24847;48.218;16.414;2023-06-10T16:52:57;18.40;99.90
39103;DHT22;24847;48.218;16.414;2023-06-10T16:57:59;18.50;99.90
39103;DHT22;24847;48.218;16.414;2023-06-10T17:03:01;18.40;99.90
39103;DHT22;24847;48.218;16.414;2023-06-10T17:08:05;18.30;99.90
39103;DHT22;24847;48.218;16.414;2023-06-10T17:13:07;18.10;99.90
39103;DHT22;24847;48.218;16.414;2023-06-10T17:18:09;18.30;99.90
39103;DHT22;24847;48.218;16.414;2023-06-10T17:23:13;18.40;99.90
39103;DHT22;24847;48.218;16.414;2023-06-10T17:28:16;18.60;99.90
39103;DHT22;24847;48.218;16.414;2023-06-10T17:33:20;18.40;99.90
39103;DHT22;24847;48.218;16.414;2023-06-10T17:38:24;18.50;99.90
39103;DHT22;24847;48.218;16.414;2023-06-10T17:43:26;18.60;99.90
39103;DHT22;24847;48.218;16.414;2023-06-10T17:48:28;18.20;99.90
39103;DHT22;24847;48.218;16.414;2023-06-10T17:53:32;18.40;99.90
39103;DHT22;24847;48.218;16.414;2023-06-10T17:58:34;18.40;99.90
39103;DHT22;24847;48.218;16.414;2023-06-10T18:03:36;18.40;99.90
39103;DHT22;24847;48.218;16.414;2023-06-10T18:08:43;18.40;99.90
39103;DHT22;24847;48.218;16.414;2023-06-10T18:13:46;18.60;99.90
39103;DHT22;24847;48.218;16.414;2023-06-10T18:18:48;18.50;99.90
39103;DHT22;24847;48.218;16.414;2023-06-10T18:23:52;18.60;99.90
39103;DHT22;24847;48.218;16.414;2023-06-10T18:28:55;18.50;99.90
39103;DHT22;24847;48.218;16.414;2023-06-10T18:33:57;18.50;99.90
39103;DHT22;24847;48.218;16.414;2023-06-10T18:39:00;18.50;99.90
39103;DHT22;24847;48.218;16.414;2023-06-10T18:44:03;18.50;99.90
39103;DHT22;24847;48.218;16.414;2023-06-10T18:49:05;18.50;99.90
39103;DHT22;24847;48.218;16.414;2023-06-10T18:54:09;18.60;99.90
39103;DHT22;24847;48.218;16.414;2023-06-10T18:59:12;18.50;99.90
39103;DHT22;24847;48.218;16.414;2023-06-10T19:04:14;18.20;99.90
39103;DHT22;24847;48.218;16.414;2023-06-10T19:09:18;18.10;99.90
39103;DHT22;24847;48.218;16.414;2023-06-10T19:14:20;18.10;99.90
39103;DHT22;24847;48.218;16.414;2023-06-10T19:19:26;18.00;99.90
39103;DHT22;24847;48.218;16.414;2023-06-10T19:24:30;18.00;99.90
39103;DHT22;24847;48.218;16.414;2023-06-10T19:29:33;17.90;99.90
39103;DHT22;24847;48.218;16.414;2023-06-10T19:34:35;18.10;99.90
39103;DHT22;24847;48.218;16.414;2023-06-10T19:39:39;18.00;99.90
39103;DHT22;24847;48.218;16.414;2023-06-10T19:44:41;17.90;99.90
39103;DHT22;24847;48.218;16.414;2023-06-10T19:49:43;17.90;99.90
39103;DHT22;24847;48.218;16.414;2023-06-10T19:54:47;18.00;99.90
39103;DHT22;24847;48.218;16.414;2023-06-10T19:59:49;17.90;99.90
39103;DHT22;24847;48.218;16.414;2023-06-10T20:04:51;18.00;99.90
39103;DHT22;24847;48.218;16.414;2023-06-10T20:09:55;17.80;99.90
39103;DHT22;24847;48.218;16.414;2023-06-10T20:14:58;17.80;99.90
39103;DHT22;24847;48.218;16.414;2023-06-10T20:20:00;17.90;99.90
39103;DHT22;24847;48.218;16.414;2023-06-10T20:25:05;17.80;99.90
39103;DHT22;24847;48.218;16.414;2023-06-10T20:30:08;17.80;99.90
39103;DHT22;24847;48.218;16.414;2023-06-10T20:35:11;17.80;99.90
39103;DHT22;24847;48.218;16.414;2023-06-10T20:40:15;17.80;99.90
39103;DHT22;24847;48.218;16.414;2023-06-10T20:45:17;17.70;99.90
39103;DHT22;24847;48.218;16.414;2023-06-10T20:50:19;17.80;99.90
39103;DHT22;24847;48.218;16.414;2023-06-10T20:55:23;17.80;99.90
39103;DHT22;24847;48.218;16.414;2023-06-10T21:00:26;17.90;99.90
39103;DHT22;24847;48.218;16.414;2023-06-10T21:05:28;17.80;99.90
39103;DHT22;24847;48.218;16.414;2023-06-10T21:10:31;17.80;99.90
39103;DHT22;24847;48.218;16.414;2023-06-10T21:15:34;17.80;99.90
39103;DHT22;24847;48.218;16.414;2023-06-10T21:20:36;17.80;99.90
39103;DHT22;24847;48.218;16.414;2023-06-10T21:25:39;17.80;99.90
39103;DHT22;24847;48.218;16.414;2023-06-10T21:30:42;18.00;99.90
39103;DHT22;24847;48.218;16.414;2023-06-10T21:35:45;17.90;99.90
39103;DHT22;24847;48.218;16.414;2023-06-10T21:40:48;17.80;99.90
39103;DHT22;24847;48.218;16.414;2023-06-10T21:45:51;17.70;99.90
39103;DHT22;24847;48.218;16.414;2023-06-10T21:50:53;17.70;99.90
39103;DHT22;24847;48.218;16.414;2023-06-10T21:55:57;17.70;99.90
39103;DHT22;24847;48.218;16.414;2023-06-10T22:00:59;17.80;99.90
39103;DHT22;24847;48.218;16.414;2023-06-10T22:06:01;17.80;99.90
39103;DHT22;24847;48.218;16.414;2023-06-10T22:11:05;17.80;99.90
39103;DHT22;24847;48.218;16.414;2023-06-10T22:16:07;17.80;99.90
39103;DHT22;24847;48.218;16.414;2023-06-10T22:21:10;17.80;99.90
39103;DHT22;24847;48.218;16.414;2023-06-10T22:26:16;17.90;99.90
39103;DHT22;24847;48.218;16.414;2023-06-10T22:31:19;17.60;99.90
39103;DHT22;24847;48.218;16.414;2023-06-10T22:36:21;17.60;99.90
39103;DHT22;24847;48.218;16.414;2023-06-10T22:41:25;17.50;99.90
39103;DHT22;24847;48.218;16.414;2023-06-10T22:46:27;17.40;99.90
39103;DHT22;24847;48.218;16.414;2023-06-10T22:51:29;17.30;99.90
39103;DHT22;24847;48.218;16.414;2023-06-10T22:56:33;17.40;99.90
39103;DHT22;24847;48.218;16.414;2023-06-10T23:01:35;17.30;99.90
39103;DHT22;24847;48.218;16.414;2023-06-10T23:06:38;17.30;99.90
39103;DHT22;24847;48.218;16.414;2023-06-10T23:11:42;17.50;99.90
39103;DHT22;24847;48.218;16.414;2023-06-10T23:16:44;17.30;99.90
39103;DHT22;24847;48.218;16.414;2023-06-10T23:21:47;17.40;99.90
39103;DHT22;24847;48.218;16.414;2023-06-10T23:26:55;17.30;99.90
39103;DHT22;24847;48.218;16.414;2023-06-10T23:31:57;17.30;99.90
39103;DHT22;24847;48.218;16.414;2023-06-10T23:36:59;17.30;99.90
39103;DHT22;24847;48.218;16.414;2023-06-10T23:42:04;17.30;99.90
39103;DHT22;24847;48.218;16.414;2023-06-10T23:47:07;17.20;99.90
39103;DHT22;24847;48.218;16.414;2023-06-10T23:52:10;17.30;99.90
39103;DHT22;24847;48.218;16.414;2023-06-10T23:57:15;17.10;99.90
